This is the latest recevied weather packets stored in our database for station/object DF1GD-10. If no packets are shown the sender has not sent any weather packets the latest 10 day(s).
| Time | Temp. | Humidity | Pressure | Rain* | Wind** | Luminosity | Snow |
|---|---|---|---|---|---|---|---|
| 1788378190 | 19.44° C | 39% | 1020.6 hPa | - | - | - | - |
| 1788377290 | 20° C | 39% | 1020.6 hPa | - | - | - | - |
| 1788376390 | 20° C | 37% | 1020.4 hPa | - | - | - | - |
| 1788375490 | 20.56° C | 37% | 1020.3 hPa | - | - | - | - |
| 1788374589 | 21.11° C | 36% | 1020.1 hPa | - | - | - | - |
| 1788373689 | 21.67° C | 34% | 1019.9 hPa | - | - | - | - |
| 1788372789 | 22.22° C | 33% | 1019.8 hPa | - | - | - | - |
| 1788371889 | 22.78° C | 31% | 1019.7 hPa | - | - | - | - |
| 1788370989 | 23.33° C | 29% | 1019.6 hPa | - | - | - | - |
| 1788370089 | 24.44° C | 27% | 1019.5 hPa | - | - | - | - |
| 1788369188 | 25° C | 26% | 1019.4 hPa | - | - | - | - |
| 1788368288 | 24.44° C | 26% | 1019.4 hPa | - | - | - | - |
| 1788367388 | 25° C | 25% | 1019.4 hPa | - | - | - | - |
| 1788366488 | 26.11° C | 23% | 1019.3 hPa | - | - | - | - |
| 1788365588 | 26.67° C | 25% | 1019.5 hPa | - | - | - | - |
| 1788364688 | 26.67° C | 24% | 1019.6 hPa | - | - | - | - |
| 1788363788 | 26.11° C | 26% | 1019.6 hPa | - | - | - | - |
| 1788362888 | 27.78° C | 23% | 1019.7 hPa | - | - | - | - |
| 1788361987 | 27.78° C | 23% | 1019.7 hPa | - | - | - | - |
| 1788361087 | 25° C | 27% | 1019.8 hPa | - | - | - | - |
| 1788360187 | 23.89° C | 29% | 1019.7 hPa | - | - | - | - |
| 1788359287 | 23.89° C | 29% | 1019.7 hPa | - | - | - | - |
| 1788358387 | 24.44° C | 30% | 1019.9 hPa | - | - | - | - |
| 1788357486 | 24.44° C | 30% | 1019.7 hPa | - | - | - | - |
| 1788356585 | 23.33° C | 31% | 1019.8 hPa | - | - | - | - |
* Rain since midnight (hover to see other rain measurements)
** Current wind speed in m/s (hover to see current wind gust speed)